sensor_id;sensor_type;location;lat;lon;timestamp;P1;durP1;ratioP1;P2;durP2;ratioP2
56136;SDS011;42008;52.934;5.884;2022-09-09T00:04:26;18.20;;;10.77;;
56136;SDS011;42008;52.934;5.884;2022-09-09T00:12:51;19.60;;;10.95;;
56136;SDS011;42008;52.934;5.884;2022-09-09T00:15:22;17.00;;;11.45;;
56136;SDS011;42008;52.934;5.884;2022-09-09T00:18:07;17.67;;;11.03;;
56136;SDS011;42008;52.934;5.884;2022-09-09T00:20:46;21.87;;;9.90;;
56136;SDS011;42008;52.934;5.884;2022-09-09T00:23:23;19.93;;;10.40;;
56136;SDS011;42008;52.934;5.884;2022-09-09T00:26:02;18.33;;;11.03;;
56136;SDS011;42008;52.934;5.884;2022-09-09T00:28:51;17.97;;;10.77;;
56136;SDS011;42008;52.934;5.884;2022-09-09T00:31:26;19.00;;;10.50;;
56136;SDS011;42008;52.934;5.884;2022-09-09T00:33:55;16.97;;;9.13;;
56136;SDS011;42008;52.934;5.884;2022-09-09T00:36:28;18.40;;;9.97;;
56136;SDS011;42008;52.934;5.884;2022-09-09T00:38:59;15.67;;;9.83;;
56136;SDS011;42008;52.934;5.884;2022-09-09T00:44:32;19.13;;;9.93;;
56136;SDS011;42008;52.934;5.884;2022-09-09T00:52:43;18.23;;;9.40;;
56136;SDS011;42008;52.934;5.884;2022-09-09T00:55:38;15.02;;;9.23;;
56136;SDS011;42008;52.934;5.884;2022-09-09T00:58:19;14.77;;;9.23;;
56136;SDS011;42008;52.934;5.884;2022-09-09T01:00:52;12.33;;;8.73;;
56136;SDS011;42008;52.934;5.884;2022-09-09T01:06:22;17.03;;;8.63;;
56136;SDS011;42008;52.934;5.884;2022-09-09T01:14:05;17.23;;;8.60;;
56136;SDS011;42008;52.934;5.884;2022-09-09T01:16:42;16.23;;;9.13;;
56136;SDS011;42008;52.934;5.884;2022-09-09T01:19:10;16.47;;;9.30;;
56136;SDS011;42008;52.934;5.884;2022-09-09T01:21:42;13.07;;;8.67;;
56136;SDS011;42008;52.934;5.884;2022-09-09T01:24:27;17.27;;;9.83;;
56136;SDS011;42008;52.934;5.884;2022-09-09T01:26:59;14.43;;;9.77;;
56136;SDS011;42008;52.934;5.884;2022-09-09T01:29:27;15.67;;;10.30;;
56136;SDS011;42008;52.934;5.884;2022-09-09T01:31:55;13.80;;;9.07;;
56136;SDS011;42008;52.934;5.884;2022-09-09T01:34:24;12.83;;;8.80;;
56136;SDS011;42008;52.934;5.884;2022-09-09T01:37:02;18.40;;;9.40;;
56136;SDS011;42008;52.934;5.884;2022-09-09T01:39:32;14.40;;;9.83;;
56136;SDS011;42008;52.934;5.884;2022-09-09T01:41:59;14.93;;;9.37;;
56136;SDS011;42008;52.934;5.884;2022-09-09T01:44:26;14.73;;;8.97;;
56136;SDS011;42008;52.934;5.884;2022-09-09T01:46:52;15.57;;;9.73;;
56136;SDS011;42008;52.934;5.884;2022-09-09T01:49:18;13.90;;;8.77;;
56136;SDS011;42008;52.934;5.884;2022-09-09T01:51:44;16.33;;;8.80;;
56136;SDS011;42008;52.934;5.884;2022-09-09T01:54:14;13.10;;;8.83;;
56136;SDS011;42008;52.934;5.884;2022-09-09T01:59:24;15.73;;;8.65;;
56136;SDS011;42008;52.934;5.884;2022-09-09T02:02:32;16.20;;;9.77;;
56136;SDS011;42008;52.934;5.884;2022-09-09T02:07:42;15.03;;;9.13;;
56136;SDS011;42008;52.934;5.884;2022-09-09T02:10:28;17.10;;;9.03;;
56136;SDS011;42008;52.934;5.884;2022-09-09T02:13:09;14.17;;;8.60;;
56136;SDS011;42008;52.934;5.884;2022-09-09T02:18:08;15.27;;;8.30;;
56136;SDS011;42008;52.934;5.884;2022-09-09T02:20:37;17.63;;;8.27;;
56136;SDS011;42008;52.934;5.884;2022-09-09T02:23:04;14.33;;;7.83;;
56136;SDS011;42008;52.934;5.884;2022-09-09T02:25:32;13.33;;;8.17;;
56136;SDS011;42008;52.934;5.884;2022-09-09T02:28:00;15.13;;;9.20;;
56136;SDS011;42008;52.934;5.884;2022-09-09T02:30:29;12.00;;;8.43;;
56136;SDS011;42008;52.934;5.884;2022-09-09T02:32:59;14.80;;;7.90;;
56136;SDS011;42008;52.934;5.884;2022-09-09T02:35:28;10.53;;;7.53;;
56136;SDS011;42008;52.934;5.884;2022-09-09T02:37:58;12.87;;;7.07;;
56136;SDS011;42008;52.934;5.884;2022-09-09T02:40:27;14.57;;;7.70;;
56136;SDS011;42008;52.934;5.884;2022-09-09T02:42:53;10.80;;;8.50;;
56136;SDS011;42008;52.934;5.884;2022-09-09T02:45:21;13.70;;;8.57;;
56136;SDS011;42008;52.934;5.884;2022-09-09T02:51:08;14.07;;;7.87;;
56136;SDS011;42008;52.934;5.884;2022-09-09T02:53:23;14.17;;;8.13;;
56136;SDS011;42008;52.934;5.884;2022-09-09T02:56:02;11.60;;;7.97;;
56136;SDS011;42008;52.934;5.884;2022-09-09T02:58:32;16.77;;;8.70;;
56136;SDS011;42008;52.934;5.884;2022-09-09T03:00:58;16.40;;;8.97;;
56136;SDS011;42008;52.934;5.884;2022-09-09T03:03:26;14.30;;;8.40;;
56136;SDS011;42008;52.934;5.884;2022-09-09T03:05:52;15.80;;;9.07;;
56136;SDS011;42008;52.934;5.884;2022-09-09T03:08:17;15.20;;;8.50;;
56136;SDS011;42008;52.934;5.884;2022-09-09T03:10:43;13.43;;;8.73;;
56136;SDS011;42008;52.934;5.884;2022-09-09T03:13:09;13.40;;;8.53;;
56136;SDS011;42008;52.934;5.884;2022-09-09T03:15:35;13.23;;;8.73;;
56136;SDS011;42008;52.934;5.884;2022-09-09T03:18:00;11.93;;;8.00;;
56136;SDS011;42008;52.934;5.884;2022-09-09T03:20:27;12.63;;;7.50;;
56136;SDS011;42008;52.934;5.884;2022-09-09T03:22:54;11.80;;;8.03;;
56136;SDS011;42008;52.934;5.884;2022-09-09T03:25:21;11.50;;;7.43;;
56136;SDS011;42008;52.934;5.884;2022-09-09T03:27:51;15.10;;;6.67;;
56136;SDS011;42008;52.934;5.884;2022-09-09T03:30:19;9.57;;;6.23;;
56136;SDS011;42008;52.934;5.884;2022-09-09T03:32:46;11.83;;;5.83;;
56136;SDS011;42008;52.934;5.884;2022-09-09T03:35:11;10.47;;;5.30;;
56136;SDS011;42008;52.934;5.884;2022-09-09T03:37:37;14.17;;;5.80;;
56136;SDS011;42008;52.934;5.884;2022-09-09T03:40:04;10.20;;;5.33;;
56136;SDS011;42008;52.934;5.884;2022-09-09T03:42:29;14.60;;;5.63;;
56136;SDS011;42008;52.934;5.884;2022-09-09T03:44:56;12.13;;;6.13;;
56136;SDS011;42008;52.934;5.884;2022-09-09T03:47:22;8.83;;;4.70;;
56136;SDS011;42008;52.934;5.884;2022-09-09T03:49:48;8.73;;;4.80;;
56136;SDS011;42008;52.934;5.884;2022-09-09T03:52:14;12.53;;;5.20;;
56136;SDS011;42008;52.934;5.884;2022-09-09T03:54:41;9.23;;;5.13;;
56136;SDS011;42008;52.934;5.884;2022-09-09T03:57:07;9.13;;;5.57;;
56136;SDS011;42008;52.934;5.884;2022-09-09T03:59:36;9.43;;;5.33;;
56136;SDS011;42008;52.934;5.884;2022-09-09T04:02:02;13.93;;;5.20;;
56136;SDS011;42008;52.934;5.884;2022-09-09T04:04:28;8.20;;;4.83;;
56136;SDS011;42008;52.934;5.884;2022-09-09T04:06:53;12.67;;;6.33;;
56136;SDS011;42008;52.934;5.884;2022-09-09T04:09:19;14.43;;;5.80;;
56136;SDS011;42008;52.934;5.884;2022-09-09T04:11:45;13.60;;;5.37;;
56136;SDS011;42008;52.934;5.884;2022-09-09T04:14:11;10.87;;;5.60;;
56136;SDS011;42008;52.934;5.884;2022-09-09T04:16:37;9.23;;;5.63;;
56136;SDS011;42008;52.934;5.884;2022-09-09T04:19:04;10.80;;;5.77;;
56136;SDS011;42008;52.934;5.884;2022-09-09T04:21:31;12.77;;;6.97;;
56136;SDS011;42008;52.934;5.884;2022-09-09T04:23:57;13.23;;;6.33;;
56136;SDS011;42008;52.934;5.884;2022-09-09T04:26:23;11.60;;;6.30;;
56136;SDS011;42008;52.934;5.884;2022-09-09T04:28:48;13.07;;;7.23;;
56136;SDS011;42008;52.934;5.884;2022-09-09T04:31:16;11.97;;;7.40;;
56136;SDS011;42008;52.934;5.884;2022-09-09T04:33:44;19.17;;;8.93;;
56136;SDS011;42008;52.934;5.884;2022-09-09T04:36:11;12.57;;;7.33;;
56136;SDS011;42008;52.934;5.884;2022-09-09T04:38:37;13.47;;;8.57;;
56136;SDS011;42008;52.934;5.884;2022-09-09T04:41:03;14.67;;;8.60;;
56136;SDS011;42008;52.934;5.884;2022-09-09T04:43:29;13.07;;;8.13;;
56136;SDS011;42008;52.934;5.884;2022-09-09T04:45:55;14.03;;;8.83;;
56136;SDS011;42008;52.934;5.884;2022-09-09T04:48:21;12.20;;;8.87;;
56136;SDS011;42008;52.934;5.884;2022-09-09T04:50:53;16.43;;;9.70;;
56136;SDS011;42008;52.934;5.884;2022-09-09T04:53:23;18.20;;;9.43;;
56136;SDS011;42008;52.934;5.884;2022-09-09T04:55:48;16.37;;;9.53;;
56136;SDS011;42008;52.934;5.884;2022-09-09T04:58:14;15.60;;;9.20;;
56136;SDS011;42008;52.934;5.884;2022-09-09T05:00:40;18.13;;;10.00;;
56136;SDS011;42008;52.934;5.884;2022-09-09T05:03:07;16.13;;;9.97;;
56136;SDS011;42008;52.934;5.884;2022-09-09T05:05:34;15.57;;;9.90;;
56136;SDS011;42008;52.934;5.884;2022-09-09T05:08:07;14.17;;;10.50;;
56136;SDS011;42008;52.934;5.884;2022-09-09T05:10:34;18.40;;;11.27;;
56136;SDS011;42008;52.934;5.884;2022-09-09T05:13:06;18.50;;;11.47;;
56136;SDS011;42008;52.934;5.884;2022-09-09T05:15:32;18.33;;;11.40;;
56136;SDS011;42008;52.934;5.884;2022-09-09T05:17:58;21.73;;;11.73;;
56136;SDS011;42008;52.934;5.884;2022-09-09T05:20:25;16.50;;;11.07;;
56136;SDS011;42008;52.934;5.884;2022-09-09T05:22:53;16.70;;;11.17;;
56136;SDS011;42008;52.934;5.884;2022-09-09T05:25:19;18.23;;;10.97;;
56136;SDS011;42008;52.934;5.884;2022-09-09T05:27:47;17.33;;;9.97;;
56136;SDS011;42008;52.934;5.884;2022-09-09T05:30:12;18.33;;;9.80;;
56136;SDS011;42008;52.934;5.884;2022-09-09T05:32:38;15.13;;;9.87;;
56136;SDS011;42008;52.934;5.884;2022-09-09T05:35:03;13.93;;;9.00;;
56136;SDS011;42008;52.934;5.884;2022-09-09T05:37:30;15.83;;;9.97;;
56136;SDS011;42008;52.934;5.884;2022-09-09T05:39:56;17.03;;;9.40;;
56136;SDS011;42008;52.934;5.884;2022-09-09T05:42:22;14.50;;;9.57;;
56136;SDS011;42008;52.934;5.884;2022-09-09T05:44:48;18.73;;;10.23;;
56136;SDS011;42008;52.934;5.884;2022-09-09T05:47:15;19.80;;;10.73;;
56136;SDS011;42008;52.934;5.884;2022-09-09T05:49:42;15.40;;;10.23;;
56136;SDS011;42008;52.934;5.884;2022-09-09T05:52:08;17.90;;;11.53;;
56136;SDS011;42008;52.934;5.884;2022-09-09T05:54:34;18.43;;;10.53;;
56136;SDS011;42008;52.934;5.884;2022-09-09T05:57:00;18.70;;;11.00;;
56136;SDS011;42008;52.934;5.884;2022-09-09T05:59:26;16.83;;;11.47;;
56136;SDS011;42008;52.934;5.884;2022-09-09T06:01:52;16.70;;;11.23;;
56136;SDS011;42008;52.934;5.884;2022-09-09T06:04:18;16.93;;;10.83;;
56136;SDS011;42008;52.934;5.884;2022-09-09T06:06:45;16.63;;;11.90;;
56136;SDS011;42008;52.934;5.884;2022-09-09T06:09:11;16.37;;;10.67;;
56136;SDS011;42008;52.934;5.884;2022-09-09T06:11:37;20.47;;;12.07;;
56136;SDS011;42008;52.934;5.884;2022-09-09T06:14:04;16.07;;;10.80;;
56136;SDS011;42008;52.934;5.884;2022-09-09T06:16:30;17.87;;;11.23;;
56136;SDS011;42008;52.934;5.884;2022-09-09T06:19:00;15.43;;;10.67;;
56136;SDS011;42008;52.934;5.884;2022-09-09T06:21:35;14.83;;;10.43;;
56136;SDS011;42008;52.934;5.884;2022-09-09T06:24:05;16.67;;;10.13;;
56136;SDS011;42008;52.934;5.884;2022-09-09T06:26:33;17.87;;;10.43;;
56136;SDS011;42008;52.934;5.884;2022-09-09T06:29:00;15.93;;;9.73;;
56136;SDS011;42008;52.934;5.884;2022-09-09T06:31:29;14.93;;;9.40;;
56136;SDS011;42008;52.934;5.884;2022-09-09T06:33:55;12.90;;;9.07;;
56136;SDS011;42008;52.934;5.884;2022-09-09T06:36:23;16.90;;;9.67;;
56136;SDS011;42008;52.934;5.884;2022-09-09T06:38:50;11.10;;;8.93;;
56136;SDS011;42008;52.934;5.884;2022-09-09T06:41:16;13.23;;;8.33;;
56136;SDS011;42008;52.934;5.884;2022-09-09T06:43:43;12.70;;;9.10;;
56136;SDS011;42008;52.934;5.884;2022-09-09T06:46:16;15.53;;;9.73;;
56136;SDS011;42008;52.934;5.884;2022-09-09T06:48:44;15.43;;;8.87;;
56136;SDS011;42008;52.934;5.884;2022-09-09T06:51:11;17.33;;;9.50;;
56136;SDS011;42008;52.934;5.884;2022-09-09T06:53:39;14.63;;;9.30;;
56136;SDS011;42008;52.934;5.884;2022-09-09T06:58:51;15.23;;;9.47;;
56136;SDS011;42008;52.934;5.884;2022-09-09T07:01:18;14.90;;;8.87;;
56136;SDS011;42008;52.934;5.884;2022-09-09T07:03:46;13.60;;;8.60;;
56136;SDS011;42008;52.934;5.884;2022-09-09T07:06:35;12.97;;;9.03;;
56136;SDS011;42008;52.934;5.884;2022-09-09T07:09:07;18.90;;;8.80;;
56136;SDS011;42008;52.934;5.884;2022-09-09T07:11:38;14.80;;;8.50;;
56136;SDS011;42008;52.934;5.884;2022-09-09T07:14:06;15.23;;;8.80;;
56136;SDS011;42008;52.934;5.884;2022-09-09T07:16:32;13.80;;;7.63;;
56136;SDS011;42008;52.934;5.884;2022-09-09T07:19:02;13.27;;;7.83;;
56136;SDS011;42008;52.934;5.884;2022-09-09T07:21:28;11.70;;;7.23;;
56136;SDS011;42008;52.934;5.884;2022-09-09T07:23:55;10.60;;;6.37;;
56136;SDS011;42008;52.934;5.884;2022-09-09T07:26:22;12.20;;;6.73;;
56136;SDS011;42008;52.934;5.884;2022-09-09T07:28:50;10.17;;;6.50;;
56136;SDS011;42008;52.934;5.884;2022-09-09T07:31:17;14.50;;;7.30;;
56136;SDS011;42008;52.934;5.884;2022-09-09T07:33:46;8.80;;;6.27;;
56136;SDS011;42008;52.934;5.884;2022-09-09T07:36:23;10.07;;;6.60;;
56136;SDS011;42008;52.934;5.884;2022-09-09T07:38:54;11.93;;;6.27;;
56136;SDS011;42008;52.934;5.884;2022-09-09T07:41:32;11.43;;;5.90;;
56136;SDS011;42008;52.934;5.884;2022-09-09T07:44:07;12.83;;;6.03;;
56136;SDS011;42008;52.934;5.884;2022-09-09T07:46:35;11.47;;;5.20;;
56136;SDS011;42008;52.934;5.884;2022-09-09T07:49:03;10.13;;;5.00;;
56136;SDS011;42008;52.934;5.884;2022-09-09T07:51:30;10.53;;;4.63;;
56136;SDS011;42008;52.934;5.884;2022-09-09T07:54:01;10.03;;;4.73;;
56136;SDS011;42008;52.934;5.884;2022-09-09T07:56:29;11.20;;;4.87;;
56136;SDS011;42008;52.934;5.884;2022-09-09T07:58:56;11.60;;;4.83;;
56136;SDS011;42008;52.934;5.884;2022-09-09T08:01:25;13.43;;;4.47;;
56136;SDS011;42008;52.934;5.884;2022-09-09T08:03:57;9.07;;;4.40;;
56136;SDS011;42008;52.934;5.884;2022-09-09T08:06:30;12.27;;;4.87;;
56136;SDS011;42008;52.934;5.884;2022-09-09T08:11:24;10.97;;;4.90;;
56136;SDS011;42008;52.934;5.884;2022-09-09T08:13:51;13.37;;;4.80;;
56136;SDS011;42008;52.934;5.884;2022-09-09T08:16:22;10.93;;;4.17;;
56136;SDS011;42008;52.934;5.884;2022-09-09T08:18:50;8.90;;;3.77;;
56136;SDS011;42008;52.934;5.884;2022-09-09T08:21:18;11.83;;;4.37;;
56136;SDS011;42008;52.934;5.884;2022-09-09T08:23:46;10.37;;;4.30;;
56136;SDS011;42008;52.934;5.884;2022-09-09T08:26:14;12.80;;;4.30;;
56136;SDS011;42008;52.934;5.884;2022-09-09T08:28:41;15.20;;;4.40;;
56136;SDS011;42008;52.934;5.884;2022-09-09T08:33:33;13.30;;;4.53;;
56136;SDS011;42008;52.934;5.884;2022-09-09T08:35:58;11.73;;;4.23;;
56136;SDS011;42008;52.934;5.884;2022-09-09T08:38:24;11.40;;;4.10;;
56136;SDS011;42008;52.934;5.884;2022-09-09T08:40:50;16.47;;;4.43;;
56136;SDS011;42008;52.934;5.884;2022-09-09T08:43:24;14.53;;;4.70;;
56136;SDS011;42008;52.934;5.884;2022-09-09T08:51:13;11.63;;;4.07;;
56136;SDS011;42008;52.934;5.884;2022-09-09T08:53:43;12.00;;;4.17;;
56136;SDS011;42008;52.934;5.884;2022-09-09T08:56:14;14.70;;;3.63;;
56136;SDS011;42008;52.934;5.884;2022-09-09T08:58:50;11.30;;;3.50;;
56136;SDS011;42008;52.934;5.884;2022-09-09T09:04:14;9.80;;;3.30;;
56136;SDS011;42008;52.934;5.884;2022-09-09T09:12:00;17.80;;;3.50;;
56136;SDS011;42008;52.934;5.884;2022-09-09T09:14:31;11.77;;;3.60;;
56136;SDS011;42008;52.934;5.884;2022-09-09T09:17:01;9.73;;;2.70;;
56136;SDS011;42008;52.934;5.884;2022-09-09T09:19:29;7.27;;;2.50;;
56136;SDS011;42008;52.934;5.884;2022-09-09T09:24:52;10.13;;;2.87;;
56136;SDS011;42008;52.934;5.884;2022-09-09T09:30:20;10.37;;;2.67;;
56136;SDS011;42008;52.934;5.884;2022-09-09T09:32:59;12.37;;;2.73;;
56136;SDS011;42008;52.934;5.884;2022-09-09T09:35:30;9.47;;;2.63;;
56136;SDS011;42008;52.934;5.884;2022-09-09T09:37:55;20.60;;;3.00;;
56136;SDS011;42008;52.934;5.884;2022-09-09T09:40:22;11.77;;;2.57;;
56136;SDS011;42008;52.934;5.884;2022-09-09T09:42:49;5.03;;;1.80;;
56136;SDS011;42008;52.934;5.884;2022-09-09T09:46:01;9.37;;;2.70;;
56136;SDS011;42008;52.934;5.884;2022-09-09T09:48:11;10.57;;;2.28;;
56136;SDS011;42008;52.934;5.884;2022-09-09T09:50:48;10.50;;;2.60;;
56136;SDS011;42008;52.934;5.884;2022-09-09T09:53:26;9.23;;;2.37;;
56136;SDS011;42008;52.934;5.884;2022-09-09T09:55:56;11.37;;;2.50;;
56136;SDS011;42008;52.934;5.884;2022-09-09T09:58:25;9.57;;;2.20;;
56136;SDS011;42008;52.934;5.884;2022-09-09T10:00:53;9.80;;;2.60;;
56136;SDS011;42008;52.934;5.884;2022-09-09T10:03:23;8.90;;;2.43;;
56136;SDS011;42008;52.934;5.884;2022-09-09T10:05:51;8.90;;;1.90;;
56136;SDS011;42008;52.934;5.884;2022-09-09T10:08:17;11.80;;;1.90;;
56136;SDS011;42008;52.934;5.884;2022-09-09T10:16:38;10.20;;;2.03;;
56136;SDS011;42008;52.934;5.884;2022-09-09T10:21:57;9.37;;;2.47;;
56136;SDS011;42008;52.934;5.884;2022-09-09T10:27:03;9.07;;;2.23;;
56136;SDS011;42008;52.934;5.884;2022-09-09T10:32:28;9.80;;;2.30;;
56136;SDS011;42008;52.934;5.884;2022-09-09T10:35:22;10.33;;;2.10;;
56136;SDS011;42008;52.934;5.884;2022-09-09T10:38:02;9.60;;;2.20;;
56136;SDS011;42008;52.934;5.884;2022-09-09T10:48:47;8.97;;;2.07;;
56136;SDS011;42008;52.934;5.884;2022-09-09T10:54:24;10.20;;;2.23;;
56136;SDS011;42008;52.934;5.884;2022-09-09T10:56:56;10.00;;;2.20;;
56136;SDS011;42008;52.934;5.884;2022-09-09T10:59:31;10.33;;;2.10;;
56136;SDS011;42008;52.934;5.884;2022-09-09T11:07:15;7.17;;;1.90;;
56136;SDS011;42008;52.934;5.884;2022-09-09T11:10:01;8.70;;;1.97;;
56136;SDS011;42008;52.934;5.884;2022-09-09T11:12:31;12.05;;;2.22;;
56136;SDS011;42008;52.934;5.884;2022-09-09T11:17:54;11.18;;;2.55;;
56136;SDS011;42008;52.934;5.884;2022-09-09T11:20:23;10.00;;;2.47;;
56136;SDS011;42008;52.934;5.884;2022-09-09T11:22:51;8.67;;;2.03;;
56136;SDS011;42008;52.934;5.884;2022-09-09T11:25:32;7.77;;;2.27;;
56136;SDS011;42008;52.934;5.884;2022-09-09T11:41:47;13.97;;;2.50;;
56136;SDS011;42008;52.934;5.884;2022-09-09T11:44:27;10.97;;;2.30;;
56136;SDS011;42008;52.934;5.884;2022-09-09T11:46:55;10.30;;;2.13;;
56136;SDS011;42008;52.934;5.884;2022-09-09T11:49:40;10.33;;;2.73;;
56136;SDS011;42008;52.934;5.884;2022-09-09T11:54:50;9.40;;;2.43;;
56136;SDS011;42008;52.934;5.884;2022-09-09T11:57:24;12.00;;;2.47;;
56136;SDS011;42008;52.934;5.884;2022-09-09T11:59:55;10.43;;;2.43;;
56136;SDS011;42008;52.934;5.884;2022-09-09T12:02:22;18.53;;;2.93;;
56136;SDS011;42008;52.934;5.884;2022-09-09T12:04:55;9.33;;;2.30;;
56136;SDS011;42008;52.934;5.884;2022-09-09T12:10:19;11.23;;;2.60;;
56136;SDS011;42008;52.934;5.884;2022-09-09T12:12:53;14.30;;;2.80;;
56136;SDS011;42008;52.934;5.884;2022-09-09T12:15:20;13.73;;;2.70;;
56136;SDS011;42008;52.934;5.884;2022-09-09T12:17:53;11.17;;;2.40;;
56136;SDS011;42008;52.934;5.884;2022-09-09T12:30:59;8.97;;;1.90;;
56136;SDS011;42008;52.934;5.884;2022-09-09T12:33:45;7.67;;;2.10;;
56136;SDS011;42008;52.934;5.884;2022-09-09T12:36:24;7.93;;;1.90;;
56136;SDS011;42008;52.934;5.884;2022-09-09T12:38:54;10.07;;;1.88;;
56136;SDS011;42008;52.934;5.884;2022-09-09T12:41:24;9.50;;;2.23;;
56136;SDS011;42008;52.934;5.884;2022-09-09T12:43:51;10.20;;;2.20;;
56136;SDS011;42008;52.934;5.884;2022-09-09T12:46:34;7.60;;;2.13;;
56136;SDS011;42008;52.934;5.884;2022-09-09T12:49:01;9.23;;;2.77;;
56136;SDS011;42008;52.934;5.884;2022-09-09T12:51:29;6.97;;;2.10;;
56136;SDS011;42008;52.934;5.884;2022-09-09T12:53:56;6.83;;;2.10;;
56136;SDS011;42008;52.934;5.884;2022-09-09T12:56:27;9.03;;;2.33;;
56136;SDS011;42008;52.934;5.884;2022-09-09T12:58:56;14.47;;;2.80;;
56136;SDS011;42008;52.934;5.884;2022-09-09T13:01:30;11.67;;;2.33;;
56136;SDS011;42008;52.934;5.884;2022-09-09T13:03:58;11.07;;;1.90;;
56136;SDS011;42008;52.934;5.884;2022-09-09T13:06:28;10.07;;;2.20;;
56136;SDS011;42008;52.934;5.884;2022-09-09T13:08:55;11.67;;;2.47;;
56136;SDS011;42008;52.934;5.884;2022-09-09T13:11:31;8.23;;;2.30;;
56136;SDS011;42008;52.934;5.884;2022-09-09T13:14:01;5.87;;;2.03;;
56136;SDS011;42008;52.934;5.884;2022-09-09T13:16:31;7.67;;;1.80;;
56136;SDS011;42008;52.934;5.884;2022-09-09T13:19:02;8.27;;;2.07;;
56136;SDS011;42008;52.934;5.884;2022-09-09T13:21:39;7.87;;;2.23;;
56136;SDS011;42008;52.934;5.884;2022-09-09T13:29:22;6.93;;;1.73;;
56136;SDS011;42008;52.934;5.884;2022-09-09T13:31:48;8.37;;;1.97;;
56136;SDS011;42008;52.934;5.884;2022-09-09T13:36:59;4.65;;;1.33;;
56136;SDS011;42008;52.934;5.884;2022-09-09T13:39:30;7.18;;;1.80;;
56136;SDS011;42008;52.934;5.884;2022-09-09T13:41:59;6.30;;;1.92;;
56136;SDS011;42008;52.934;5.884;2022-09-09T13:44:35;4.50;;;1.70;;
56136;SDS011;42008;52.934;5.884;2022-09-09T13:47:05;4.85;;;1.50;;
56136;SDS011;42008;52.934;5.884;2022-09-09T13:49:42;5.45;;;1.45;;
56136;SDS011;42008;52.934;5.884;2022-09-09T13:52:11;7.97;;;2.08;;
56136;SDS011;42008;52.934;5.884;2022-09-09T13:54:39;6.63;;;1.80;;
56136;SDS011;42008;52.934;5.884;2022-09-09T13:57:05;6.72;;;2.17;;
56136;SDS011;42008;52.934;5.884;2022-09-09T13:59:40;7.38;;;2.05;;
56136;SDS011;42008;52.934;5.884;2022-09-09T14:02:06;7.32;;;1.90;;
56136;SDS011;42008;52.934;5.884;2022-09-09T14:04:32;6.68;;;1.77;;
56136;SDS011;42008;52.934;5.884;2022-09-09T14:07:00;5.45;;;1.60;;
56136;SDS011;42008;52.934;5.884;2022-09-09T14:09:26;7.32;;;1.58;;
56136;SDS011;42008;52.934;5.884;2022-09-09T14:11:52;9.02;;;1.75;;
56136;SDS011;42008;52.934;5.884;2022-09-09T14:14:17;6.50;;;1.70;;
56136;SDS011;42008;52.934;5.884;2022-09-09T14:16:43;6.07;;;1.42;;
56136;SDS011;42008;52.934;5.884;2022-09-09T14:19:09;5.05;;;1.45;;
56136;SDS011;42008;52.934;5.884;2022-09-09T14:21:34;5.18;;;1.55;;
56136;SDS011;42008;52.934;5.884;2022-09-09T14:24:00;4.83;;;1.47;;
56136;SDS011;42008;52.934;5.884;2022-09-09T14:26:26;6.07;;;1.73;;
56136;SDS011;42008;52.934;5.884;2022-09-09T14:28:53;5.93;;;2.05;;
56136;SDS011;42008;52.934;5.884;2022-09-09T14:31:19;6.77;;;1.87;;
56136;SDS011;42008;52.934;5.884;2022-09-09T14:33:46;5.15;;;1.85;;
56136;SDS011;42008;52.934;5.884;2022-09-09T14:36:11;5.93;;;1.67;;
56136;SDS011;42008;52.934;5.884;2022-09-09T14:38:37;7.93;;;2.10;;
56136;SDS011;42008;52.934;5.884;2022-09-09T14:41:05;7.33;;;2.23;;
56136;SDS011;42008;52.934;5.884;2022-09-09T14:43:31;6.80;;;2.60;;
56136;SDS011;42008;52.934;5.884;2022-09-09T14:45:58;7.67;;;2.60;;
56136;SDS011;42008;52.934;5.884;2022-09-09T14:48:30;8.17;;;2.50;;
56136;SDS011;42008;52.934;5.884;2022-09-09T14:50:56;5.37;;;2.53;;
56136;SDS011;42008;52.934;5.884;2022-09-09T14:53:22;6.60;;;2.60;;
56136;SDS011;42008;52.934;5.884;2022-09-09T14:55:47;5.20;;;2.20;;
56136;SDS011;42008;52.934;5.884;2022-09-09T14:58:14;5.77;;;2.30;;
56136;SDS011;42008;52.934;5.884;2022-09-09T15:00:39;5.00;;;1.97;;
56136;SDS011;42008;52.934;5.884;2022-09-09T15:03:06;5.60;;;2.00;;
56136;SDS011;42008;52.934;5.884;2022-09-09T15:05:31;6.00;;;2.23;;
56136;SDS011;42008;52.934;5.884;2022-09-09T15:07:57;4.40;;;1.60;;
56136;SDS011;42008;52.934;5.884;2022-09-09T15:10:23;6.07;;;2.10;;
56136;SDS011;42008;52.934;5.884;2022-09-09T15:12:49;4.97;;;2.07;;
56136;SDS011;42008;52.934;5.884;2022-09-09T15:15:15;4.87;;;2.20;;
56136;SDS011;42008;52.934;5.884;2022-09-09T15:17:40;5.53;;;2.27;;
56136;SDS011;42008;52.934;5.884;2022-09-09T15:20:06;7.63;;;2.53;;
56136;SDS011;42008;52.934;5.884;2022-09-09T15:22:32;4.73;;;1.90;;
56136;SDS011;42008;52.934;5.884;2022-09-09T15:24:59;5.03;;;2.20;;
56136;SDS011;42008;52.934;5.884;2022-09-09T15:27:24;7.53;;;2.27;;
56136;SDS011;42008;52.934;5.884;2022-09-09T15:29:50;6.23;;;2.33;;
56136;SDS011;42008;52.934;5.884;2022-09-09T15:32:16;7.40;;;2.60;;
56136;SDS011;42008;52.934;5.884;2022-09-09T15:34:42;6.27;;;2.40;;
56136;SDS011;42008;52.934;5.884;2022-09-09T15:37:11;6.78;;;2.13;;
56136;SDS011;42008;52.934;5.884;2022-09-09T15:39:40;9.20;;;2.55;;
56136;SDS011;42008;52.934;5.884;2022-09-09T15:42:06;7.43;;;3.00;;
56136;SDS011;42008;52.934;5.884;2022-09-09T15:44:39;9.20;;;2.83;;
56136;SDS011;42008;52.934;5.884;2022-09-09T15:47:07;8.70;;;2.70;;
56136;SDS011;42008;52.934;5.884;2022-09-09T15:49:37;6.88;;;2.55;;
56136;SDS011;42008;52.934;5.884;2022-09-09T15:52:03;9.23;;;2.55;;
56136;SDS011;42008;52.934;5.884;2022-09-09T15:54:33;7.32;;;2.50;;
56136;SDS011;42008;52.934;5.884;2022-09-09T15:57:01;6.45;;;2.17;;
56136;SDS011;42008;52.934;5.884;2022-09-09T15:59:29;8.40;;;2.58;;
56136;SDS011;42008;52.934;5.884;2022-09-09T16:01:56;7.90;;;2.70;;
56136;SDS011;42008;52.934;5.884;2022-09-09T16:04:23;8.02;;;2.20;;
56136;SDS011;42008;52.934;5.884;2022-09-09T16:06:53;6.22;;;2.33;;
56136;SDS011;42008;52.934;5.884;2022-09-09T16:09:29;6.95;;;2.47;;
56136;SDS011;42008;52.934;5.884;2022-09-09T16:11:56;5.50;;;2.23;;
56136;SDS011;42008;52.934;5.884;2022-09-09T16:14:23;6.87;;;2.50;;
56136;SDS011;42008;52.934;5.884;2022-09-09T16:16:50;6.93;;;2.33;;
56136;SDS011;42008;52.934;5.884;2022-09-09T16:19:16;8.97;;;2.50;;
56136;SDS011;42008;52.934;5.884;2022-09-09T16:21:42;8.83;;;3.23;;
56136;SDS011;42008;52.934;5.884;2022-09-09T16:24:11;6.70;;;2.47;;
56136;SDS011;42008;52.934;5.884;2022-09-09T16:26:39;7.63;;;2.80;;
56136;SDS011;42008;52.934;5.884;2022-09-09T16:29:13;7.20;;;2.37;;
56136;SDS011;42008;52.934;5.884;2022-09-09T16:31:39;6.93;;;2.50;;
56136;SDS011;42008;52.934;5.884;2022-09-09T16:34:06;6.63;;;2.43;;
56136;SDS011;42008;52.934;5.884;2022-09-09T16:36:33;8.67;;;2.50;;
56136;SDS011;42008;52.934;5.884;2022-09-09T16:39:04;7.03;;;2.20;;
56136;SDS011;42008;52.934;5.884;2022-09-09T16:41:31;10.50;;;2.70;;
56136;SDS011;42008;52.934;5.884;2022-09-09T16:44:02;5.33;;;2.10;;
56136;SDS011;42008;52.934;5.884;2022-09-09T16:46:29;8.03;;;2.40;;
56136;SDS011;42008;52.934;5.884;2022-09-09T16:48:57;7.53;;;2.53;;
56136;SDS011;42008;52.934;5.884;2022-09-09T16:51:34;5.97;;;2.87;;
56136;SDS011;42008;52.934;5.884;2022-09-09T16:54:05;7.10;;;2.80;;
56136;SDS011;42008;52.934;5.884;2022-09-09T16:56:32;6.97;;;2.93;;
56136;SDS011;42008;52.934;5.884;2022-09-09T16:59:02;9.20;;;2.60;;
56136;SDS011;42008;52.934;5.884;2022-09-09T17:01:34;8.13;;;3.20;;
56136;SDS011;42008;52.934;5.884;2022-09-09T17:06:36;6.27;;;2.00;;
56136;SDS011;42008;52.934;5.884;2022-09-09T17:09:06;6.30;;;2.27;;